sensor_id;sensor_type;location;lat;lon;timestamp;temperature;humidity
30678;DHT22;17437;47.188;8.896;2023-04-08T00:01:21;6.80;99.90
30678;DHT22;17437;47.188;8.896;2023-04-08T00:03:52;6.80;99.90
30678;DHT22;17437;47.188;8.896;2023-04-08T00:06:24;6.80;99.90
30678;DHT22;17437;47.188;8.896;2023-04-08T00:08:56;6.70;99.90
30678;DHT22;17437;47.188;8.896;2023-04-08T00:11:28;6.70;99.90
30678;DHT22;17437;47.188;8.896;2023-04-08T00:14:01;6.60;99.90
30678;DHT22;17437;47.188;8.896;2023-04-08T00:16:33;6.60;99.90
30678;DHT22;17437;47.188;8.896;2023-04-08T00:19:05;6.50;99.90
30678;DHT22;17437;47.188;8.896;2023-04-08T00:21:36;6.50;99.90
30678;DHT22;17437;47.188;8.896;2023-04-08T00:24:08;6.50;99.90
30678;DHT22;17437;47.188;8.896;2023-04-08T00:26:39;6.40;99.90
30678;DHT22;17437;47.188;8.896;2023-04-08T00:29:11;6.40;99.90
30678;DHT22;17437;47.188;8.896;2023-04-08T00:31:42;6.30;99.90
30678;DHT22;17437;47.188;8.896;2023-04-08T00:34:14;6.20;99.90
30678;DHT22;17437;47.188;8.896;2023-04-08T00:36:46;6.10;99.90
30678;DHT22;17437;47.188;8.896;2023-04-08T00:39:18;6.10;99.90
30678;DHT22;17437;47.188;8.896;2023-04-08T00:41:49;6.00;99.90
30678;DHT22;17437;47.188;8.896;2023-04-08T00:44:21;6.00;99.90
30678;DHT22;17437;47.188;8.896;2023-04-08T00:46:52;5.90;99.90
30678;DHT22;17437;47.188;8.896;2023-04-08T00:49:24;5.90;99.90
30678;DHT22;17437;47.188;8.896;2023-04-08T00:51:57;5.80;99.90
30678;DHT22;17437;47.188;8.896;2023-04-08T00:54:30;5.70;99.90
30678;DHT22;17437;47.188;8.896;2023-04-08T00:57:01;5.70;99.90
30678;DHT22;17437;47.188;8.896;2023-04-08T00:59:34;5.60;99.90
30678;DHT22;17437;47.188;8.896;2023-04-08T01:02:11;5.60;99.90
30678;DHT22;17437;47.188;8.896;2023-04-08T01:04:48;5.50;99.90
30678;DHT22;17437;47.188;8.896;2023-04-08T01:07:23;5.50;99.90
30678;DHT22;17437;47.188;8.896;2023-04-08T01:09:58;5.40;99.90
30678;DHT22;17437;47.188;8.896;2023-04-08T01:12:32;5.30;99.90
30678;DHT22;17437;47.188;8.896;2023-04-08T01:15:07;5.20;99.90
30678;DHT22;17437;47.188;8.896;2023-04-08T01:17:41;5.20;99.90
30678;DHT22;17437;47.188;8.896;2023-04-08T01:20:15;5.10;99.90
30678;DHT22;17437;47.188;8.896;2023-04-08T01:22:57;5.10;99.90
30678;DHT22;17437;47.188;8.896;2023-04-08T01:25:26;5.10;99.90
30678;DHT22;17437;47.188;8.896;2023-04-08T01:28:00;5.00;99.90
30678;DHT22;17437;47.188;8.896;2023-04-08T01:30:34;4.90;99.90
30678;DHT22;17437;47.188;8.896;2023-04-08T01:33:07;4.90;99.90
30678;DHT22;17437;47.188;8.896;2023-04-08T01:35:41;4.80;99.90
30678;DHT22;17437;47.188;8.896;2023-04-08T01:38:17;4.80;99.90
30678;DHT22;17437;47.188;8.896;2023-04-08T01:40:49;4.70;99.90
30678;DHT22;17437;47.188;8.896;2023-04-08T01:43:21;4.70;99.90
30678;DHT22;17437;47.188;8.896;2023-04-08T01:45:56;4.70;99.90
30678;DHT22;17437;47.188;8.896;2023-04-08T01:48:28;4.60;99.90
30678;DHT22;17437;47.188;8.896;2023-04-08T01:51:00;4.70;99.90
30678;DHT22;17437;47.188;8.896;2023-04-08T01:53:33;4.70;99.90
30678;DHT22;17437;47.188;8.896;2023-04-08T01:56:08;4.70;99.90
30678;DHT22;17437;47.188;8.896;2023-04-08T01:58:42;4.70;99.90
30678;DHT22;17437;47.188;8.896;2023-04-08T02:01:16;4.70;99.90
30678;DHT22;17437;47.188;8.896;2023-04-08T02:03:48;4.80;99.90
30678;DHT22;17437;47.188;8.896;2023-04-08T02:06:22;4.80;99.90
30678;DHT22;17437;47.188;8.896;2023-04-08T02:08:54;4.80;99.90
30678;DHT22;17437;47.188;8.896;2023-04-08T02:11:26;4.80;99.90
30678;DHT22;17437;47.188;8.896;2023-04-08T02:13:58;4.80;99.90
30678;DHT22;17437;47.188;8.896;2023-04-08T02:16:32;4.80;99.90
30678;DHT22;17437;47.188;8.896;2023-04-08T02:19:09;4.80;99.90
30678;DHT22;17437;47.188;8.896;2023-04-08T02:21:45;4.90;99.90
30678;DHT22;17437;47.188;8.896;2023-04-08T02:24:17;4.90;99.90
30678;DHT22;17437;47.188;8.896;2023-04-08T02:26:50;4.90;99.90
30678;DHT22;17437;47.188;8.896;2023-04-08T02:29:24;4.90;99.90
30678;DHT22;17437;47.188;8.896;2023-04-08T02:31:57;4.90;99.90
30678;DHT22;17437;47.188;8.896;2023-04-08T02:34:30;5.00;99.90
30678;DHT22;17437;47.188;8.896;2023-04-08T02:37:03;5.20;99.90
30678;DHT22;17437;47.188;8.896;2023-04-08T02:39:35;5.20;99.90
30678;DHT22;17437;47.188;8.896;2023-04-08T02:42:06;5.20;99.90
30678;DHT22;17437;47.188;8.896;2023-04-08T02:44:39;5.20;99.90
30678;DHT22;17437;47.188;8.896;2023-04-08T02:47:11;5.10;99.90
30678;DHT22;17437;47.188;8.896;2023-04-08T02:49:43;5.10;99.90
30678;DHT22;17437;47.188;8.896;2023-04-08T02:52:14;5.00;99.90
30678;DHT22;17437;47.188;8.896;2023-04-08T02:54:46;4.90;99.90
30678;DHT22;17437;47.188;8.896;2023-04-08T02:57:17;4.90;99.90
30678;DHT22;17437;47.188;8.896;2023-04-08T02:59:49;4.80;99.90
30678;DHT22;17437;47.188;8.896;2023-04-08T03:02:20;4.70;99.90
30678;DHT22;17437;47.188;8.896;2023-04-08T03:04:51;4.80;99.90
30678;DHT22;17437;47.188;8.896;2023-04-08T03:07:23;4.80;99.90
30678;DHT22;17437;47.188;8.896;2023-04-08T03:09:55;4.80;99.90
30678;DHT22;17437;47.188;8.896;2023-04-08T03:12:26;4.90;99.90
30678;DHT22;17437;47.188;8.896;2023-04-08T03:14:58;4.90;99.90
30678;DHT22;17437;47.188;8.896;2023-04-08T03:17:30;4.90;99.90
30678;DHT22;17437;47.188;8.896;2023-04-08T03:20:06;4.80;99.90
30678;DHT22;17437;47.188;8.896;2023-04-08T03:22:38;4.80;99.90
30678;DHT22;17437;47.188;8.896;2023-04-08T03:25:10;4.80;99.90
30678;DHT22;17437;47.188;8.896;2023-04-08T03:27:41;4.90;99.90
30678;DHT22;17437;47.188;8.896;2023-04-08T03:30:13;4.90;99.90
30678;DHT22;17437;47.188;8.896;2023-04-08T03:32:44;5.00;99.90
30678;DHT22;17437;47.188;8.896;2023-04-08T03:35:16;5.00;99.90
30678;DHT22;17437;47.188;8.896;2023-04-08T03:37:48;5.10;99.90
30678;DHT22;17437;47.188;8.896;2023-04-08T03:40:20;5.10;99.90
30678;DHT22;17437;47.188;8.896;2023-04-08T03:42:51;5.10;99.90
30678;DHT22;17437;47.188;8.896;2023-04-08T03:45:23;5.10;99.90
30678;DHT22;17437;47.188;8.896;2023-04-08T03:47:55;5.20;99.90
30678;DHT22;17437;47.188;8.896;2023-04-08T03:50:27;5.20;99.90
30678;DHT22;17437;47.188;8.896;2023-04-08T03:52:58;5.20;99.90
30678;DHT22;17437;47.188;8.896;2023-04-08T03:55:29;5.20;99.90
30678;DHT22;17437;47.188;8.896;2023-04-08T03:58:01;5.20;99.90
30678;DHT22;17437;47.188;8.896;2023-04-08T04:00:32;5.10;99.90
30678;DHT22;17437;47.188;8.896;2023-04-08T04:03:05;5.20;99.90
30678;DHT22;17437;47.188;8.896;2023-04-08T04:05:37;5.20;99.90
30678;DHT22;17437;47.188;8.896;2023-04-08T04:08:08;5.20;99.90
30678;DHT22;17437;47.188;8.896;2023-04-08T04:10:40;5.20;99.90
30678;DHT22;17437;47.188;8.896;2023-04-08T04:13:11;5.20;99.90
30678;DHT22;17437;47.188;8.896;2023-04-08T04:15:43;5.20;99.90
30678;DHT22;17437;47.188;8.896;2023-04-08T04:18:14;5.30;99.90
30678;DHT22;17437;47.188;8.896;2023-04-08T04:20:46;5.30;99.90
30678;DHT22;17437;47.188;8.896;2023-04-08T04:23:18;5.40;99.90
30678;DHT22;17437;47.188;8.896;2023-04-08T04:25:50;5.50;99.90
30678;DHT22;17437;47.188;8.896;2023-04-08T04:28:22;5.50;99.90
30678;DHT22;17437;47.188;8.896;2023-04-08T04:30:53;5.60;99.90
30678;DHT22;17437;47.188;8.896;2023-04-08T04:33:26;5.60;99.90
30678;DHT22;17437;47.188;8.896;2023-04-08T04:35:57;5.60;99.90
30678;DHT22;17437;47.188;8.896;2023-04-08T04:38:29;5.60;99.90
30678;DHT22;17437;47.188;8.896;2023-04-08T04:41:01;5.60;99.90
30678;DHT22;17437;47.188;8.896;2023-04-08T04:43:33;5.60;99.90
30678;DHT22;17437;47.188;8.896;2023-04-08T04:46:05;5.70;99.90
30678;DHT22;17437;47.188;8.896;2023-04-08T04:48:38;5.70;99.90
30678;DHT22;17437;47.188;8.896;2023-04-08T04:51:10;5.70;99.90
30678;DHT22;17437;47.188;8.896;2023-04-08T04:53:41;5.80;99.90
30678;DHT22;17437;47.188;8.896;2023-04-08T04:56:13;5.80;99.90
30678;DHT22;17437;47.188;8.896;2023-04-08T04:58:44;5.70;99.90
30678;DHT22;17437;47.188;8.896;2023-04-08T05:01:16;5.70;99.90
30678;DHT22;17437;47.188;8.896;2023-04-08T05:03:47;5.70;99.90
30678;DHT22;17437;47.188;8.896;2023-04-08T05:06:19;5.70;99.90
30678;DHT22;17437;47.188;8.896;2023-04-08T05:08:50;5.70;99.90
30678;DHT22;17437;47.188;8.896;2023-04-08T05:11:22;5.70;99.90
30678;DHT22;17437;47.188;8.896;2023-04-08T05:13:53;5.70;99.90
30678;DHT22;17437;47.188;8.896;2023-04-08T05:16:26;5.70;99.90
30678;DHT22;17437;47.188;8.896;2023-04-08T05:18:58;5.60;99.90
30678;DHT22;17437;47.188;8.896;2023-04-08T05:21:30;5.60;99.90
30678;DHT22;17437;47.188;8.896;2023-04-08T05:24:02;5.60;99.90
30678;DHT22;17437;47.188;8.896;2023-04-08T05:26:33;5.60;99.90
30678;DHT22;17437;47.188;8.896;2023-04-08T05:29:05;5.60;99.90
30678;DHT22;17437;47.188;8.896;2023-04-08T05:31:37;5.60;99.90
30678;DHT22;17437;47.188;8.896;2023-04-08T05:34:08;5.60;99.90
30678;DHT22;17437;47.188;8.896;2023-04-08T05:36:40;5.60;99.90
30678;DHT22;17437;47.188;8.896;2023-04-08T05:39:13;5.60;99.90
30678;DHT22;17437;47.188;8.896;2023-04-08T05:41:45;5.70;99.90
30678;DHT22;17437;47.188;8.896;2023-04-08T05:44:16;5.70;99.90
30678;DHT22;17437;47.188;8.896;2023-04-08T05:46:48;5.60;99.90
30678;DHT22;17437;47.188;8.896;2023-04-08T05:49:19;5.70;99.90
30678;DHT22;17437;47.188;8.896;2023-04-08T05:51:51;5.70;99.90
30678;DHT22;17437;47.188;8.896;2023-04-08T05:54:23;5.70;99.90
30678;DHT22;17437;47.188;8.896;2023-04-08T05:56:54;5.70;99.90
30678;DHT22;17437;47.188;8.896;2023-04-08T05:59:25;5.70;99.90
30678;DHT22;17437;47.188;8.896;2023-04-08T06:01:57;5.80;99.90
30678;DHT22;17437;47.188;8.896;2023-04-08T06:04:29;5.90;99.90
30678;DHT22;17437;47.188;8.896;2023-04-08T06:07:01;5.80;99.90
30678;DHT22;17437;47.188;8.896;2023-04-08T06:09:35;5.80;99.90
30678;DHT22;17437;47.188;8.896;2023-04-08T06:12:07;5.80;99.90
30678;DHT22;17437;47.188;8.896;2023-04-08T06:14:38;5.70;99.90
30678;DHT22;17437;47.188;8.896;2023-04-08T06:17:10;5.80;99.90
30678;DHT22;17437;47.188;8.896;2023-04-08T06:19:41;5.90;99.90
30678;DHT22;17437;47.188;8.896;2023-04-08T06:22:13;5.90;99.90
30678;DHT22;17437;47.188;8.896;2023-04-08T06:24:46;6.00;99.90
30678;DHT22;17437;47.188;8.896;2023-04-08T06:27:18;6.00;99.90
30678;DHT22;17437;47.188;8.896;2023-04-08T06:29:49;6.00;99.90
30678;DHT22;17437;47.188;8.896;2023-04-08T06:32:22;6.10;99.90
30678;DHT22;17437;47.188;8.896;2023-04-08T06:34:54;6.10;99.90
30678;DHT22;17437;47.188;8.896;2023-04-08T06:37:26;6.10;99.90
30678;DHT22;17437;47.188;8.896;2023-04-08T06:39:57;6.10;99.90
30678;DHT22;17437;47.188;8.896;2023-04-08T06:42:29;6.10;99.90
30678;DHT22;17437;47.188;8.896;2023-04-08T06:45:00;6.10;99.90
30678;DHT22;17437;47.188;8.896;2023-04-08T06:47:32;6.10;99.90
30678;DHT22;17437;47.188;8.896;2023-04-08T06:50:05;6.10;99.90
30678;DHT22;17437;47.188;8.896;2023-04-08T06:52:36;6.10;99.90
30678;DHT22;17437;47.188;8.896;2023-04-08T06:55:09;6.20;99.90
30678;DHT22;17437;47.188;8.896;2023-04-08T07:01:28;6.20;99.90
30678;DHT22;17437;47.188;8.896;2023-04-08T07:04:01;6.20;99.90
30678;DHT22;17437;47.188;8.896;2023-04-08T07:06:32;6.30;99.90
30678;DHT22;17437;47.188;8.896;2023-04-08T07:09:04;6.50;99.90
30678;DHT22;17437;47.188;8.896;2023-04-08T07:11:36;6.50;99.90
30678;DHT22;17437;47.188;8.896;2023-04-08T07:14:07;6.60;99.90
30678;DHT22;17437;47.188;8.896;2023-04-08T07:16:39;6.60;99.90
30678;DHT22;17437;47.188;8.896;2023-04-08T07:19:10;6.70;99.90
30678;DHT22;17437;47.188;8.896;2023-04-08T07:21:42;6.80;99.90
30678;DHT22;17437;47.188;8.896;2023-04-08T07:24:14;6.90;99.90
30678;DHT22;17437;47.188;8.896;2023-04-08T07:26:46;7.00;99.90
30678;DHT22;17437;47.188;8.896;2023-04-08T07:29:18;7.20;99.90
30678;DHT22;17437;47.188;8.896;2023-04-08T07:31:50;7.40;99.90
30678;DHT22;17437;47.188;8.896;2023-04-08T07:34:22;7.50;99.90
30678;DHT22;17437;47.188;8.896;2023-04-08T07:36:54;7.60;99.90
30678;DHT22;17437;47.188;8.896;2023-04-08T07:39:26;7.60;99.90
30678;DHT22;17437;47.188;8.896;2023-04-08T07:42:00;7.50;99.90
30678;DHT22;17437;47.188;8.896;2023-04-08T07:44:31;7.50;99.90
30678;DHT22;17437;47.188;8.896;2023-04-08T07:47:03;7.40;99.90
30678;DHT22;17437;47.188;8.896;2023-04-08T07:49:34;7.30;99.90
30678;DHT22;17437;47.188;8.896;2023-04-08T07:52:07;7.30;99.90
30678;DHT22;17437;47.188;8.896;2023-04-08T07:54:38;7.40;99.90
30678;DHT22;17437;47.188;8.896;2023-04-08T07:57:10;7.30;99.90
30678;DHT22;17437;47.188;8.896;2023-04-08T07:59:41;7.30;99.90
30678;DHT22;17437;47.188;8.896;2023-04-08T08:02:13;7.30;99.90
30678;DHT22;17437;47.188;8.896;2023-04-08T08:04:45;7.30;99.90
30678;DHT22;17437;47.188;8.896;2023-04-08T08:07:16;7.30;99.90
30678;DHT22;17437;47.188;8.896;2023-04-08T08:09:48;7.30;99.90
30678;DHT22;17437;47.188;8.896;2023-04-08T08:12:20;7.30;99.90
30678;DHT22;17437;47.188;8.896;2023-04-08T08:14:51;7.40;99.90
30678;DHT22;17437;47.188;8.896;2023-04-08T08:17:25;7.50;99.90
30678;DHT22;17437;47.188;8.896;2023-04-08T08:19:59;7.50;99.90
30678;DHT22;17437;47.188;8.896;2023-04-08T08:22:30;7.60;99.90
30678;DHT22;17437;47.188;8.896;2023-04-08T08:25:03;7.70;99.90
30678;DHT22;17437;47.188;8.896;2023-04-08T08:27:34;7.90;99.90
30678;DHT22;17437;47.188;8.896;2023-04-08T08:30:08;7.90;99.90
30678;DHT22;17437;47.188;8.896;2023-04-08T08:32:40;7.90;99.90
30678;DHT22;17437;47.188;8.896;2023-04-08T08:35:11;8.00;99.90
30678;DHT22;17437;47.188;8.896;2023-04-08T08:37:43;8.10;99.90
30678;DHT22;17437;47.188;8.896;2023-04-08T08:40:14;8.30;99.90
30678;DHT22;17437;47.188;8.896;2023-04-08T08:42:50;8.40;99.90
30678;DHT22;17437;47.188;8.896;2023-04-08T08:45:22;8.50;99.90
30678;DHT22;17437;47.188;8.896;2023-04-08T08:47:54;8.30;99.90
30678;DHT22;17437;47.188;8.896;2023-04-08T08:50:27;8.20;99.90
30678;DHT22;17437;47.188;8.896;2023-04-08T08:52:59;8.20;99.90
30678;DHT22;17437;47.188;8.896;2023-04-08T08:55:32;8.10;99.90
30678;DHT22;17437;47.188;8.896;2023-04-08T08:58:05;8.30;99.90
30678;DHT22;17437;47.188;8.896;2023-04-08T09:00:39;8.60;99.90
30678;DHT22;17437;47.188;8.896;2023-04-08T09:03:17;8.70;99.90
30678;DHT22;17437;47.188;8.896;2023-04-08T09:05:51;8.70;99.90
30678;DHT22;17437;47.188;8.896;2023-04-08T09:08:27;8.70;99.90
30678;DHT22;17437;47.188;8.896;2023-04-08T09:11:13;8.80;99.90
30678;DHT22;17437;47.188;8.896;2023-04-08T09:13:45;8.80;99.90
30678;DHT22;17437;47.188;8.896;2023-04-08T09:16:18;8.90;99.90
30678;DHT22;17437;47.188;8.896;2023-04-08T09:18:49;8.80;99.90
30678;DHT22;17437;47.188;8.896;2023-04-08T09:21:22;8.70;99.90
30678;DHT22;17437;47.188;8.896;2023-04-08T09:23:56;8.80;99.90
30678;DHT22;17437;47.188;8.896;2023-04-08T09:26:28;8.90;99.90
30678;DHT22;17437;47.188;8.896;2023-04-08T09:29:01;9.10;99.90
30678;DHT22;17437;47.188;8.896;2023-04-08T09:31:36;9.10;99.90
30678;DHT22;17437;47.188;8.896;2023-04-08T09:34:11;8.90;99.90
30678;DHT22;17437;47.188;8.896;2023-04-08T09:36:44;8.90;99.90
30678;DHT22;17437;47.188;8.896;2023-04-08T09:39:16;8.80;99.90
30678;DHT22;17437;47.188;8.896;2023-04-08T09:41:49;9.00;99.90
30678;DHT22;17437;47.188;8.896;2023-04-08T09:44:23;9.10;99.90
30678;DHT22;17437;47.188;8.896;2023-04-08T09:47:00;9.30;99.90
30678;DHT22;17437;47.188;8.896;2023-04-08T09:49:36;9.60;99.90
30678;DHT22;17437;47.188;8.896;2023-04-08T09:52:10;9.80;99.90
30678;DHT22;17437;47.188;8.896;2023-04-08T09:54:47;9.70;99.90
30678;DHT22;17437;47.188;8.896;2023-04-08T09:57:21;9.60;99.90
30678;DHT22;17437;47.188;8.896;2023-04-08T09:59:56;9.70;99.90
30678;DHT22;17437;47.188;8.896;2023-04-08T10:02:31;9.80;99.90
30678;DHT22;17437;47.188;8.896;2023-04-08T10:05:04;9.90;99.90
30678;DHT22;17437;47.188;8.896;2023-04-08T10:07:37;10.00;99.90
30678;DHT22;17437;47.188;8.896;2023-04-08T10:10:10;10.10;99.90
30678;DHT22;17437;47.188;8.896;2023-04-08T10:12:42;10.30;99.90
30678;DHT22;17437;47.188;8.896;2023-04-08T10:15:24;10.40;99.90
30678;DHT22;17437;47.188;8.896;2023-04-08T10:20:49;9.90;99.90
30678;DHT22;17437;47.188;8.896;2023-04-08T10:23:51;9.80;99.90
30678;DHT22;17437;47.188;8.896;2023-04-08T10:25:56;9.80;99.90
30678;DHT22;17437;47.188;8.896;2023-04-08T10:28:27;9.70;99.90
30678;DHT22;17437;47.188;8.896;2023-04-08T10:30:59;9.70;99.90
30678;DHT22;17437;47.188;8.896;2023-04-08T10:33:33;10.00;99.90
30678;DHT22;17437;47.188;8.896;2023-04-08T10:36:11;10.10;99.90
30678;DHT22;17437;47.188;8.896;2023-04-08T10:38:44;10.20;99.90
30678;DHT22;17437;47.188;8.896;2023-04-08T10:41:23;10.50;99.90
30678;DHT22;17437;47.188;8.896;2023-04-08T10:43:54;10.70;99.90
30678;DHT22;17437;47.188;8.896;2023-04-08T10:46:27;10.80;99.90
30678;DHT22;17437;47.188;8.896;2023-04-08T10:49:00;10.90;99.90
30678;DHT22;17437;47.188;8.896;2023-04-08T10:51:32;10.70;99.90
30678;DHT22;17437;47.188;8.896;2023-04-08T10:54:08;10.60;99.90
30678;DHT22;17437;47.188;8.896;2023-04-08T10:56:47;10.50;99.90
30678;DHT22;17437;47.188;8.896;2023-04-08T10:59:27;10.30;99.90
30678;DHT22;17437;47.188;8.896;2023-04-08T11:01:58;10.20;99.90
30678;DHT22;17437;47.188;8.896;2023-04-08T11:04:30;10.10;99.90
30678;DHT22;17437;47.188;8.896;2023-04-08T11:07:04;10.20;99.90
30678;DHT22;17437;47.188;8.896;2023-04-08T11:09:37;10.50;99.90
30678;DHT22;17437;47.188;8.896;2023-04-08T11:12:10;10.70;99.90
30678;DHT22;17437;47.188;8.896;2023-04-08T11:14:43;10.70;99.90
30678;DHT22;17437;47.188;8.896;2023-04-08T11:17:16;10.80;99.90
30678;DHT22;17437;47.188;8.896;2023-04-08T11:19:48;10.80;99.90
30678;DHT22;17437;47.188;8.896;2023-04-08T11:22:20;10.70;99.90
30678;DHT22;17437;47.188;8.896;2023-04-08T11:24:53;10.80;99.90
30678;DHT22;17437;47.188;8.896;2023-04-08T11:27:25;11.00;99.90
30678;DHT22;17437;47.188;8.896;2023-04-08T11:29:57;11.40;99.90
30678;DHT22;17437;47.188;8.896;2023-04-08T11:32:29;11.60;99.90
30678;DHT22;17437;47.188;8.896;2023-04-08T11:35:03;11.70;99.90
30678;DHT22;17437;47.188;8.896;2023-04-08T11:37:38;11.70;99.90
30678;DHT22;17437;47.188;8.896;2023-04-08T11:40:11;12.10;99.90
30678;DHT22;17437;47.188;8.896;2023-04-08T11:42:43;12.40;99.90
30678;DHT22;17437;47.188;8.896;2023-04-08T11:45:18;12.30;99.90
30678;DHT22;17437;47.188;8.896;2023-04-08T11:47:50;12.00;99.90
30678;DHT22;17437;47.188;8.896;2023-04-08T11:50:24;11.80;99.90
30678;DHT22;17437;47.188;8.896;2023-04-08T11:52:56;12.20;99.90
30678;DHT22;17437;47.188;8.896;2023-04-08T11:55:32;12.40;99.90
30678;DHT22;17437;47.188;8.896;2023-04-08T11:58:04;12.50;99.90
30678;DHT22;17437;47.188;8.896;2023-04-08T12:00:37;12.70;99.90
30678;DHT22;17437;47.188;8.896;2023-04-08T12:03:09;13.00;99.90
30678;DHT22;17437;47.188;8.896;2023-04-08T12:05:42;13.50;99.90
30678;DHT22;17437;47.188;8.896;2023-04-08T12:08:14;14.00;99.90
30678;DHT22;17437;47.188;8.896;2023-04-08T12:10:46;14.20;99.90
30678;DHT22;17437;47.188;8.896;2023-04-08T12:13:20;13.90;99.90
30678;DHT22;17437;47.188;8.896;2023-04-08T12:15:51;14.00;99.90
30678;DHT22;17437;47.188;8.896;2023-04-08T12:18:24;14.40;99.90
30678;DHT22;17437;47.188;8.896;2023-04-08T12:20:55;14.90;99.90
30678;DHT22;17437;47.188;8.896;2023-04-08T12:23:27;14.60;99.90
30678;DHT22;17437;47.188;8.896;2023-04-08T12:25:59;14.10;99.90
30678;DHT22;17437;47.188;8.896;2023-04-08T12:28:32;13.60;99.90
30678;DHT22;17437;47.188;8.896;2023-04-08T12:31:06;13.20;99.90
30678;DHT22;17437;47.188;8.896;2023-04-08T12:33:37;13.10;99.90
30678;DHT22;17437;47.188;8.896;2023-04-08T12:36:09;13.60;99.90
30678;DHT22;17437;47.188;8.896;2023-04-08T12:38:42;14.10;99.90
30678;DHT22;17437;47.188;8.896;2023-04-08T12:41:14;14.60;99.90
30678;DHT22;17437;47.188;8.896;2023-04-08T12:43:46;14.80;99.90
30678;DHT22;17437;47.188;8.896;2023-04-08T12:46:18;14.50;99.90
30678;DHT22;17437;47.188;8.896;2023-04-08T12:48:50;14.30;99.90
30678;DHT22;17437;47.188;8.896;2023-04-08T12:51:23;14.00;99.90
30678;DHT22;17437;47.188;8.896;2023-04-08T12:53:55;13.80;99.90
30678;DHT22;17437;47.188;8.896;2023-04-08T12:56:28;13.70;99.90
30678;DHT22;17437;47.188;8.896;2023-04-08T12:59:01;13.50;99.90
30678;DHT22;17437;47.188;8.896;2023-04-08T13:01:33;13.80;99.90
30678;DHT22;17437;47.188;8.896;2023-04-08T13:04:05;14.00;99.90
30678;DHT22;17437;47.188;8.896;2023-04-08T13:06:37;13.90;99.90
30678;DHT22;17437;47.188;8.896;2023-04-08T13:09:09;14.20;99.90
30678;DHT22;17437;47.188;8.896;2023-04-08T13:11:40;14.40;99.90
30678;DHT22;17437;47.188;8.896;2023-04-08T13:14:12;14.70;99.90
30678;DHT22;17437;47.188;8.896;2023-04-08T13:16:43;14.50;99.90
30678;DHT22;17437;47.188;8.896;2023-04-08T13:19:16;14.10;99.90
30678;DHT22;17437;47.188;8.896;2023-04-08T13:21:47;13.60;99.90
30678;DHT22;17437;47.188;8.896;2023-04-08T13:24:18;13.20;99.90
30678;DHT22;17437;47.188;8.896;2023-04-08T13:26:50;12.90;99.90
30678;DHT22;17437;47.188;8.896;2023-04-08T13:29:21;12.60;99.90
30678;DHT22;17437;47.188;8.896;2023-04-08T13:31:53;12.30;99.90
30678;DHT22;17437;47.188;8.896;2023-04-08T13:34:25;12.20;99.90
30678;DHT22;17437;47.188;8.896;2023-04-08T13:36:56;11.90;99.90
30678;DHT22;17437;47.188;8.896;2023-04-08T13:39:34;12.00;99.90
30678;DHT22;17437;47.188;8.896;2023-04-08T13:42:05;12.10;99.90
30678;DHT22;17437;47.188;8.896;2023-04-08T13:44:36;12.20;99.90
30678;DHT22;17437;47.188;8.896;2023-04-08T13:47:08;12.30;99.90
30678;DHT22;17437;47.188;8.896;2023-04-08T13:49:39;12.40;99.90
30678;DHT22;17437;47.188;8.896;2023-04-08T13:52:11;12.60;99.90
30678;DHT22;17437;47.188;8.896;2023-04-08T13:54:42;12.90;99.90
30678;DHT22;17437;47.188;8.896;2023-04-08T13:57:14;13.10;99.90
30678;DHT22;17437;47.188;8.896;2023-04-08T13:59:45;13.20;99.90
30678;DHT22;17437;47.188;8.896;2023-04-08T14:02:17;13.10;99.90
30678;DHT22;17437;47.188;8.896;2023-04-08T14:04:48;12.90;99.90
30678;DHT22;17437;47.188;8.896;2023-04-08T14:07:22;12.90;99.90
30678;DHT22;17437;47.188;8.896;2023-04-08T14:09:53;12.80;99.90
30678;DHT22;17437;47.188;8.896;2023-04-08T14:12:25;12.80;99.90
30678;DHT22;17437;47.188;8.896;2023-04-08T14:14:56;12.70;99.90
30678;DHT22;17437;47.188;8.896;2023-04-08T14:17:28;12.60;99.90
30678;DHT22;17437;47.188;8.896;2023-04-08T14:19:59;12.50;99.90
30678;DHT22;17437;47.188;8.896;2023-04-08T14:22:31;12.40;99.90
30678;DHT22;17437;47.188;8.896;2023-04-08T14:25:02;12.40;99.90
30678;DHT22;17437;47.188;8.896;2023-04-08T14:27:34;12.30;99.90
30678;DHT22;17437;47.188;8.896;2023-04-08T14:30:09;12.20;99.90
30678;DHT22;17437;47.188;8.896;2023-04-08T14:32:41;12.10;99.90
30678;DHT22;17437;47.188;8.896;2023-04-08T14:35:12;12.10;99.90
30678;DHT22;17437;47.188;8.896;2023-04-08T14:37:44;12.00;99.90
30678;DHT22;17437;47.188;8.896;2023-04-08T14:40:16;12.00;99.90
30678;DHT22;17437;47.188;8.896;2023-04-08T14:42:49;11.90;99.90
30678;DHT22;17437;47.188;8.896;2023-04-08T14:45:22;11.80;99.90
30678;DHT22;17437;47.188;8.896;2023-04-08T14:47:54;11.70;99.90
30678;DHT22;17437;47.188;8.896;2023-04-08T14:50:26;11.70;99.90
30678;DHT22;17437;47.188;8.896;2023-04-08T14:52:57;11.60;99.90
30678;DHT22;17437;47.188;8.896;2023-04-08T14:55:29;11.70;99.90
30678;DHT22;17437;47.188;8.896;2023-04-08T14:58:01;11.80;99.90
30678;DHT22;17437;47.188;8.896;2023-04-08T15:00:33;11.70;99.90
30678;DHT22;17437;47.188;8.896;2023-04-08T15:03:04;11.60;99.90
30678;DHT22;17437;47.188;8.896;2023-04-08T15:05:36;11.50;99.90
30678;DHT22;17437;47.188;8.896;2023-04-08T15:08:09;11.40;99.90
30678;DHT22;17437;47.188;8.896;2023-04-08T15:10:40;11.40;99.90
30678;DHT22;17437;47.188;8.896;2023-04-08T15:13:12;11.40;99.90
30678;DHT22;17437;47.188;8.896;2023-04-08T15:15:43;11.30;99.90
30678;DHT22;17437;47.188;8.896;2023-04-08T15:18:15;11.20;99.90
30678;DHT22;17437;47.188;8.896;2023-04-08T15:20:46;11.00;99.90
30678;DHT22;17437;47.188;8.896;2023-04-08T15:23:18;11.00;99.90
30678;DHT22;17437;47.188;8.896;2023-04-08T15:25:50;11.00;99.90
30678;DHT22;17437;47.188;8.896;2023-04-08T15:28:22;10.90;99.90
30678;DHT22;17437;47.188;8.896;2023-04-08T15:30:54;10.90;99.90
30678;DHT22;17437;47.188;8.896;2023-04-08T15:33:25;10.80;99.90
30678;DHT22;17437;47.188;8.896;2023-04-08T15:35:59;10.60;99.90
30678;DHT22;17437;47.188;8.896;2023-04-08T15:38:32;10.60;99.90
30678;DHT22;17437;47.188;8.896;2023-04-08T15:41:05;10.60;99.90
30678;DHT22;17437;47.188;8.896;2023-04-08T15:43:36;10.50;99.90
30678;DHT22;17437;47.188;8.896;2023-04-08T15:46:08;10.60;99.90
30678;DHT22;17437;47.188;8.896;2023-04-08T15:48:42;10.60;99.90
30678;DHT22;17437;47.188;8.896;2023-04-08T15:51:13;10.60;99.90
30678;DHT22;17437;47.188;8.896;2023-04-08T15:53:49;10.60;99.90
30678;DHT22;17437;47.188;8.896;2023-04-08T15:56:20;10.60;99.90
30678;DHT22;17437;47.188;8.896;2023-04-08T15:58:52;10.60;99.90
30678;DHT22;17437;47.188;8.896;2023-04-08T16:01:24;10.60;99.90
30678;DHT22;17437;47.188;8.896;2023-04-08T16:03:55;10.50;99.90
30678;DHT22;17437;47.188;8.896;2023-04-08T16:06:27;10.40;99.90
30678;DHT22;17437;47.188;8.896;2023-04-08T16:08:58;10.40;99.90
30678;DHT22;17437;47.188;8.896;2023-04-08T16:11:31;10.30;99.90
30678;DHT22;17437;47.188;8.896;2023-04-08T16:14:03;10.20;99.90
30678;DHT22;17437;47.188;8.896;2023-04-08T16:16:36;10.10;99.90
30678;DHT22;17437;47.188;8.896;2023-04-08T16:19:08;10.00;99.90